Time;durP1;ratioP1;P1;durP2;ratioP2;P2;SDS_P1;SDS_P2;PMS_P1;PMS_P2;Temp;Humidity;BMP_temperature;BMP_pressure;BME280_temperature;BME280_humidity;BME280_pressure;Samples;Min_cycle;Max_cycle;Signal;HPM_P1;HPM_P2
2024/01/24 00:01:33;;;;;;;0.90;0.68;;;7.70;99.90;;;;;;5094702;28;20235;-62
2024/01/24 00:03:59;;;;;;;2.10;0.80;;;7.80;99.90;;;;;;5094754;28;20589;-62
2024/01/24 00:06:26;;;;;;;1.83;1.25;;;7.80;99.90;;;;;;5094760;28;20493;-62
2024/01/24 00:08:52;;;;;;;0.88;0.88;;;7.90;99.90;;;;;;5094794;28;20187;-62
2024/01/24 00:11:17;;;;;;;0.50;0.50;;;7.80;99.90;;;;;;5094546;28;20175;-62
2024/01/24 00:13:43;;;;;;;0.50;0.50;;;7.90;99.90;;;;;;5094409;28;20545;-62
2024/01/24 00:16:09;;;;;;;0.50;0.50;;;8.00;99.90;;;;;;5094603;28;20673;-62
2024/01/24 00:18:34;;;;;;;2.00;1.07;;;8.00;99.90;;;;;;5095704;28;20172;-62
2024/01/24 00:21:01;;;;;;;0.97;0.70;;;8.00;99.90;;;;;;5094479;28;20711;-62
2024/01/24 00:23:26;;;;;;;0.40;0.40;;;8.10;99.90;;;;;;5092995;28;20181;-62
2024/01/24 00:25:52;;;;;;;1.03;0.60;;;8.20;99.90;;;;;;5094322;28;20561;-62
2024/01/24 00:28:18;;;;;;;1.03;1.00;;;8.10;99.90;;;;;;5094430;28;20172;-62
2024/01/24 00:30:44;;;;;;;5.60;0.55;;;8.10;99.90;;;;;;5094252;28;20172;-63
2024/01/24 00:33:10;;;;;;;1.13;0.50;;;8.20;99.90;;;;;;5094333;28;20570;-62
2024/01/24 00:35:36;;;;;;;0.80;0.55;;;8.20;99.90;;;;;;5094244;28;20829;-62
2024/01/24 00:38:02;;;;;;;4.83;1.00;;;8.30;99.90;;;;;;5094393;28;20184;-62
2024/01/24 00:40:27;;;;;;;1.23;0.60;;;8.30;99.90;;;;;;5094108;28;20314;-63
2024/01/24 00:42:53;;;;;;;0.40;0.40;;;8.30;99.90;;;;;;5094045;28;20461;-62
2024/01/24 00:45:19;;;;;;;1.40;1.07;;;8.40;99.90;;;;;;5094317;28;20188;-62
2024/01/24 00:47:44;;;;;;;1.60;0.50;;;8.40;99.90;;;;;;5094347;28;20588;-61
2024/01/24 00:50:10;;;;;;;0.50;0.50;;;8.40;99.90;;;;;;5093992;28;20180;-61
2024/01/24 00:52:36;;;;;;;3.90;0.50;;;8.30;99.90;;;;;;5093662;28;20312;-62
2024/01/24 00:55:03;;;;;;;1.07;0.77;;;8.30;99.90;;;;;;5093842;28;20202;-62
2024/01/24 00:57:28;;;;;;;0.50;0.50;;;8.30;99.90;;;;;;5093715;28;20267;-62
2024/01/24 00:59:54;;;;;;;1.37;0.60;;;8.30;99.90;;;;;;5093728;28;20260;-62
2024/01/24 01:02:20;;;;;;;0.60;0.60;;;8.40;99.90;;;;;;5093431;28;20282;-63
2024/01/24 01:04:45;;;;;;;0.40;0.40;;;8.40;99.90;;;;;;5093810;28;20605;-62
2024/01/24 01:07:11;;;;;;;1.00;0.70;;;8.40;99.90;;;;;;5093267;28;20603;-62
2024/01/24 01:09:36;;;;;;;0.60;0.40;;;8.40;99.90;;;;;;5093511;28;20177;-62
2024/01/24 01:12:03;;;;;;;0.40;0.40;;;8.50;99.90;;;;;;5093215;28;20161;-62
2024/01/24 01:14:30;;;;;;;0.50;0.50;;;8.40;99.90;;;;;;5093773;28;20217;-62
2024/01/24 01:16:56;;;;;;;0.85;0.80;;;8.40;99.90;;;;;;5093917;28;20204;-62
2024/01/24 01:19:24;;;;;;;1.77;0.70;;;8.50;99.90;;;;;;5093959;28;20177;-62
2024/01/24 01:21:50;;;;;;;0.50;0.50;;;8.60;99.90;;;;;;5093722;28;20208;-62
2024/01/24 01:24:15;;;;;;;0.50;0.50;;;8.60;99.90;;;;;;5093490;28;20172;-61
2024/01/24 01:26:41;;;;;;;0.70;0.70;;;8.60;99.90;;;;;;5093012;28;20701;-61
2024/01/24 01:29:07;;;;;;;0.60;0.60;;;8.70;99.90;;;;;;5093203;28;20638;-61
2024/01/24 01:31:32;;;;;;;2.30;0.70;;;8.70;99.90;;;;;;5093050;28;20164;-62
2024/01/24 01:34:00;;;;;;;0.40;0.40;;;8.70;99.90;;;;;;5092662;28;20255;-61
2024/01/24 01:36:26;;;;;;;1.20;0.63;;;8.80;99.90;;;;;;5093021;28;20207;-62
2024/01/24 01:38:52;;;;;;;1.88;0.65;;;8.70;99.90;;;;;;5093254;28;20173;-61
2024/01/24 01:41:18;;;;;;;1.00;0.50;;;8.70;99.90;;;;;;5093374;28;20657;-62
2024/01/24 01:43:44;;;;;;;0.83;0.70;;;8.90;99.90;;;;;;5092995;28;20169;-61
2024/01/24 01:46:21;;;;;;;0.60;0.60;;;8.90;99.90;;;;;;5093008;28;20199;-61
2024/01/24 01:48:49;;;;;;;0.50;0.50;;;8.80;99.90;;;;;;5092760;28;20184;-61
2024/01/24 01:51:16;;;;;;;1.00;0.60;;;8.80;99.90;;;;;;5092592;28;20179;-62
2024/01/24 01:53:43;;;;;;;0.60;0.60;;;8.70;99.90;;;;;;5092529;28;20650;-61
2024/01/24 01:56:12;;;;;;;2.13;0.75;;;8.70;99.90;;;;;;5092899;28;20192;-60
2024/01/24 01:58:40;;;;;;;0.70;0.63;;;8.80;99.90;;;;;;5092619;28;20179;-61
2024/01/24 02:01:06;;;;;;;2.88;0.88;;;9.00;99.90;;;;;;5092391;28;20214;-61
2024/01/24 02:03:33;;;;;;;1.58;0.55;;;9.00;99.90;;;;;;5092369;28;20181;-62
2024/01/24 02:06:00;;;;;;;1.95;0.40;;;8.90;99.90;;;;;;5092432;28;20655;-60
2024/01/24 02:08:26;;;;;;;1.10;0.55;;;9.00;99.90;;;;;;5092695;28;20183;-61
2024/01/24 02:10:51;;;;;;;0.87;0.50;;;8.90;99.90;;;;;;5092224;28;20642;-61
2024/01/24 02:13:19;;;;;;;0.57;0.57;;;9.00;99.90;;;;;;5092310;28;20399;-61
2024/01/24 02:15:44;;;;;;;0.65;0.55;;;9.00;99.90;;;;;;5092291;28;20422;-62
2024/01/24 02:18:10;;;;;;;1.43;0.50;;;9.00;99.90;;;;;;5092299;28;20176;-61
2024/01/24 02:20:36;;;;;;;0.60;0.60;;;9.00;99.90;;;;;;5091929;28;20192;-62
2024/01/24 02:23:02;;;;;;;0.87;0.63;;;9.00;99.90;;;;;;5091996;28;20192;-61
2024/01/24 02:25:27;;;;;;;1.60;0.50;;;9.00;99.90;;;;;;5092162;28;20203;-61
2024/01/24 02:27:53;;;;;;;8.03;0.73;;;9.00;99.90;;;;;;5092157;28;20908;-61
2024/01/24 02:30:19;;;;;;;1.33;0.63;;;9.10;99.90;;;;;;5092091;28;20650;-62
2024/01/24 02:32:45;;;;;;;1.37;0.53;;;9.20;99.90;;;;;;5091807;28;20252;-61
2024/01/24 02:35:11;;;;;;;1.38;0.50;;;9.20;99.90;;;;;;5091831;28;20173;-61
2024/01/24 02:37:38;;;;;;;1.13;0.90;;;9.30;99.90;;;;;;5091552;28;20177;-62
2024/01/24 02:40:04;;;;;;;1.10;1.00;;;9.20;99.90;;;;;;5092009;28;20616;-60
2024/01/24 02:42:30;;;;;;;0.70;0.60;;;9.20;99.90;;;;;;5091754;28;20592;-61
2024/01/24 02:44:57;;;;;;;3.20;1.10;;;9.20;99.90;;;;;;5091851;28;20177;-58
2024/01/24 02:47:23;;;;;;;0.70;0.52;;;9.30;99.90;;;;;;5090727;28;20169;-60
2024/01/24 02:49:49;;;;;;;0.57;0.57;;;9.30;99.90;;;;;;5091685;28;20347;-61
2024/01/24 02:52:14;;;;;;;0.60;0.50;;;9.30;99.90;;;;;;5073767;28;20599;-61
2024/01/24 02:54:41;;;;;;;1.37;1.00;;;9.30;99.90;;;;;;5091833;28;20251;-61
2024/01/24 02:57:07;;;;;;;1.60;1.00;;;9.20;99.90;;;;;;5091784;28;20196;-61
2024/01/24 02:59:33;;;;;;;0.40;0.40;;;9.30;99.90;;;;;;5091698;28;20218;-62
2024/01/24 03:01:59;;;;;;;2.53;0.57;;;9.30;99.90;;;;;;5092598;28;20252;-62
2024/01/24 03:04:24;;;;;;;0.60;0.50;;;9.20;99.90;;;;;;5091610;28;20594;-61
2024/01/24 03:06:50;;;;;;;2.00;0.83;;;9.30;99.90;;;;;;5091456;28;20827;-61
2024/01/24 03:09:16;;;;;;;1.13;0.50;;;9.50;99.90;;;;;;5091579;28;20210;-62
2024/01/24 03:11:42;;;;;;;4.20;0.80;;;9.60;99.90;;;;;;5091312;28;20177;-62
2024/01/24 03:14:07;;;;;;;0.47;0.47;;;9.50;99.90;;;;;;5091819;28;20178;-62
2024/01/24 03:16:35;;;;;;;0.70;0.70;;;9.50;99.90;;;;;;5091610;28;20212;-62
2024/01/24 03:19:01;;;;;;;0.50;0.50;;;9.40;99.90;;;;;;5091437;28;20654;-62
2024/01/24 03:21:27;;;;;;;0.87;0.70;;;9.40;99.90;;;;;;5091488;28;20233;-62
2024/01/24 03:23:53;;;;;;;0.82;0.60;;;9.40;99.90;;;;;;5091511;28;20260;-62
2024/01/24 03:26:19;;;;;;;2.90;1.00;;;9.50;99.90;;;;;;5091351;28;20350;-61
2024/01/24 03:28:44;;;;;;;0.70;0.70;;;9.60;99.90;;;;;;5091451;28;20164;-62
2024/01/24 03:31:10;;;;;;;1.50;0.90;;;9.50;99.90;;;;;;5091302;28;20642;-62
2024/01/24 03:33:36;;;;;;;0.50;0.50;;;9.40;99.90;;;;;;5091121;28;20181;-61
2024/01/24 03:36:02;;;;;;;0.82;0.70;;;9.40;99.90;;;;;;5091231;28;20197;-61
2024/01/24 03:38:29;;;;;;;1.13;0.70;;;9.40;99.90;;;;;;5091210;28;20169;-62
2024/01/24 03:40:55;;;;;;;0.75;0.75;;;9.40;99.90;;;;;;5091326;28;20786;-62
2024/01/24 03:43:20;;;;;;;0.60;0.60;;;9.50;99.90;;;;;;5091175;28;20204;-62
2024/01/24 03:45:46;;;;;;;3.83;0.73;;;9.50;99.90;;;;;;5091264;28;20188;-61
2024/01/24 03:48:12;;;;;;;4.10;1.03;;;9.60;99.90;;;;;;5091131;28;20248;-60
2024/01/24 03:50:38;;;;;;;2.83;0.97;;;9.70;99.90;;;;;;5089940;28;20169;-62
2024/01/24 03:53:03;;;;;;;4.10;1.05;;;9.70;99.90;;;;;;5091048;28;20193;-63
2024/01/24 03:55:29;;;;;;;3.20;0.60;;;9.80;99.90;;;;;;5090922;28;20231;-62
2024/01/24 03:57:56;;;;;;;2.00;0.65;;;9.80;99.90;;;;;;5092020;28;20699;-62
2024/01/24 04:00:25;;;;;;;1.90;0.80;;;9.70;99.90;;;;;;5095174;28;20564;-62
2024/01/24 04:02:50;;;;;;;0.60;0.60;;;9.80;99.90;;;;;;5094610;28;20207;-63
2024/01/24 04:05:16;;;;;;;1.03;0.60;;;9.80;99.90;;;;;;5094828;28;20564;-62
2024/01/24 04:07:42;;;;;;;0.40;0.40;;;9.80;99.90;;;;;;5094779;28;20177;-62
2024/01/24 04:10:08;;;;;;;1.03;0.60;;;9.80;99.90;;;;;;5094716;28;20172;-62
2024/01/24 04:12:34;;;;;;;1.85;0.70;;;9.70;99.90;;;;;;5094391;28;20402;-63
2024/01/24 04:15:00;;;;;;;1.40;1.30;;;9.60;99.90;;;;;;5094613;28;20179;-62
2024/01/24 04:17:25;;;;;;;1.33;0.50;;;9.60;99.90;;;;;;5094936;28;20169;-61
2024/01/24 04:19:51;;;;;;;1.07;1.07;;;9.70;99.90;;;;;;5094407;28;20446;-62
2024/01/24 04:22:17;;;;;;;1.67;1.07;;;9.60;99.90;;;;;;5094168;28;20232;-62
2024/01/24 04:24:42;;;;;;;2.50;0.90;;;9.60;99.90;;;;;;5096447;28;20168;-62
2024/01/24 04:27:08;;;;;;;2.70;0.80;;;9.50;99.90;;;;;;5094558;28;20208;-62
2024/01/24 04:29:34;;;;;;;1.43;0.60;;;9.60;99.90;;;;;;5094404;28;20427;-62
2024/01/24 04:31:59;;;;;;;1.70;0.83;;;9.60;99.90;;;;;;5094308;28;20173;-62
2024/01/24 04:34:25;;;;;;;0.97;0.70;;;9.70;99.90;;;;;;5094315;28;20587;-62
2024/01/24 04:36:54;;;;;;;0.70;0.50;;;9.70;99.90;;;;;;5094068;28;20224;-62
2024/01/24 04:39:20;;;;;;;1.40;0.90;;;9.70;99.90;;;;;;5094109;28;20251;-62
2024/01/24 04:41:45;;;;;;;0.67;0.67;;;9.70;99.90;;;;;;5093695;28;20323;-63
2024/01/24 04:44:11;;;;;;;0.90;0.90;;;9.80;99.90;;;;;;5094126;28;20905;-63
2024/01/24 04:46:37;;;;;;;1.33;1.00;;;9.90;99.90;;;;;;5094266;28;20189;-62
2024/01/24 04:49:02;;;;;;;0.60;0.60;;;9.90;99.90;;;;;;5093995;28;20203;-62
2024/01/24 04:51:28;;;;;;;0.50;0.50;;;10.00;99.90;;;;;;5093790;28;20173;-62
2024/01/24 04:53:54;;;;;;;0.87;0.80;;;10.00;99.90;;;;;;5093759;28;20654;-62
2024/01/24 04:56:20;;;;;;;4.73;1.27;;;10.00;99.90;;;;;;5093733;28;20438;-62
2024/01/24 04:58:45;;;;;;;2.83;1.10;;;10.10;99.90;;;;;;5093854;28;20187;-62
2024/01/24 05:01:14;;;;;;;1.10;1.00;;;10.10;99.90;;;;;;5093715;28;20606;-63
2024/01/24 05:03:39;;;;;;;0.60;0.60;;;10.10;99.90;;;;;;5093634;28;20169;-62
2024/01/24 05:06:05;;;;;;;0.90;0.90;;;10.10;99.90;;;;;;5093573;28;20193;-62
2024/01/24 05:08:31;;;;;;;0.77;0.68;;;10.10;99.90;;;;;;5093540;28;20176;-62
2024/01/24 05:10:57;;;;;;;0.80;0.80;;;10.20;99.90;;;;;;5092785;28;20635;-62
2024/01/24 05:13:22;;;;;;;1.93;0.57;;;10.30;99.90;;;;;;5093500;28;20218;-62
2024/01/24 05:15:49;;;;;;;0.70;0.70;;;10.30;99.90;;;;;;5093474;28;20280;-62
2024/01/24 05:18:15;;;;;;;1.25;0.70;;;10.20;99.90;;;;;;5093570;28;20259;-62
2024/01/24 05:20:41;;;;;;;1.00;0.77;;;10.20;99.90;;;;;;5093261;28;20182;-61
2024/01/24 05:23:07;;;;;;;1.90;0.63;;;10.20;99.90;;;;;;5093202;28;20576;-62
2024/01/24 05:25:33;;;;;;;1.03;0.80;;;10.30;99.90;;;;;;5093139;28;20193;-62
2024/01/24 05:28:00;;;;;;;2.65;0.95;;;10.30;99.90;;;;;;5093332;28;20848;-62
2024/01/24 05:30:26;;;;;;;1.10;1.00;;;10.20;99.90;;;;;;5093070;28;20184;-62
2024/01/24 05:32:55;;;;;;;2.40;1.27;;;10.30;99.90;;;;;;5093103;28;20603;-62
2024/01/24 05:35:21;;;;;;;2.22;1.00;;;10.30;99.90;;;;;;5093074;28;20189;-62
2024/01/24 05:37:47;;;;;;;3.37;1.73;;;10.20;99.90;;;;;;5093070;28;20184;-63
2024/01/24 05:40:12;;;;;;;0.80;0.80;;;10.30;99.90;;;;;;5092941;28;20177;-61
2024/01/24 05:42:38;;;;;;;4.70;0.80;;;10.30;99.90;;;;;;5092683;28;20305;-62
2024/01/24 05:45:05;;;;;;;1.17;0.67;;;10.30;99.90;;;;;;5093338;28;20502;-62
2024/01/24 05:47:31;;;;;;;6.38;1.10;;;10.30;99.90;;;;;;5093665;28;20169;-62
2024/01/24 05:49:59;;;;;;;4.03;0.73;;;10.40;99.90;;;;;;5092744;28;20173;-61
2024/01/24 05:52:24;;;;;;;1.30;0.60;;;10.40;99.90;;;;;;5092452;28;20184;-62
2024/01/24 05:54:50;;;;;;;1.67;0.70;;;10.30;99.90;;;;;;5092751;28;20173;-62
2024/01/24 05:57:16;;;;;;;0.70;0.70;;;10.30;99.90;;;;;;5092687;28;20192;-62
2024/01/24 05:59:41;;;;;;;3.50;1.37;;;10.30;99.90;;;;;;5092627;28;20225;-62
2024/01/24 06:02:07;;;;;;;0.60;0.60;;;10.40;99.90;;;;;;5092346;28;20522;-63
2024/01/24 06:04:33;;;;;;;3.23;0.80;;;10.40;99.90;;;;;;5092544;28;20233;-63
2024/01/24 06:07:01;;;;;;;0.50;0.50;;;10.40;99.90;;;;;;5092350;28;20185;-62
2024/01/24 06:09:30;;;;;;;1.50;0.77;;;10.40;99.90;;;;;;5092443;28;20539;-63
2024/01/24 06:11:55;;;;;;;2.77;1.63;;;10.50;99.90;;;;;;5091730;28;20169;-62
2024/01/24 06:14:21;;;;;;;0.70;0.63;;;10.40;99.90;;;;;;5092187;28;20518;-59
2024/01/24 06:16:47;;;;;;;2.87;0.60;;;10.40;99.90;;;;;;5092164;28;20690;-61
2024/01/24 06:19:12;;;;;;;3.07;1.10;;;10.40;99.90;;;;;;5092180;28;20169;-62
2024/01/24 06:21:38;;;;;;;2.87;0.80;;;10.40;99.90;;;;;;5091927;28;20245;-63
2024/01/24 06:24:06;;;;;;;0.80;0.67;;;10.40;99.90;;;;;;5092058;28;20548;-62
2024/01/24 06:26:32;;;;;;;0.82;0.70;;;10.40;99.90;;;;;;5091725;28;20211;-61
2024/01/24 06:28:57;;;;;;;0.50;0.50;;;10.40;99.90;;;;;;5092208;28;20255;-62
2024/01/24 06:31:23;;;;;;;1.00;0.90;;;10.30;99.90;;;;;;5092419;28;20169;-61
2024/01/24 06:33:49;;;;;;;1.27;0.67;;;10.10;99.90;;;;;;5091699;28;20165;-61
2024/01/24 06:36:14;;;;;;;0.50;0.50;;;10.10;99.90;;;;;;5091841;28;20230;-62
2024/01/24 06:38:40;;;;;;;0.50;0.50;;;10.10;99.90;;;;;;5092065;28;20176;-62
2024/01/24 06:41:06;;;;;;;0.40;0.40;;;10.10;99.90;;;;;;5091870;28;20482;-62
2024/01/24 06:43:31;;;;;;;0.70;0.70;;;10.10;99.90;;;;;;5091753;28;20208;-62
2024/01/24 06:45:57;;;;;;;0.70;0.50;;;10.10;99.90;;;;;;5091811;28;20185;-63
2024/01/24 06:48:22;;;;;;;0.57;0.40;;;10.20;99.90;;;;;;5091783;28;20173;-62
2024/01/24 06:50:48;;;;;;;1.90;0.80;;;10.20;99.90;;;;;;5091539;28;20165;-61
2024/01/24 06:53:14;;;;;;;1.97;0.90;;;10.10;99.90;;;;;;5091672;28;20187;-61
2024/01/24 06:55:41;;;;;;;2.20;0.70;;;10.10;99.90;;;;;;5091565;28;20222;-61
2024/01/24 06:58:07;;;;;;;0.93;0.65;;;10.10;99.90;;;;;;5091780;28;20185;-63
2024/01/24 07:00:33;;;;;;;1.38;0.77;;;10.10;99.90;;;;;;5089260;28;20678;-63
2024/01/24 07:03:00;;;;;;;0.70;0.60;;;10.20;99.90;;;;;;5075713;28;20205;-62
2024/01/24 07:05:26;;;;;;;0.70;0.68;;;10.30;99.90;;;;;;5074878;28;20526;-62
2024/01/24 07:07:51;;;;;;;1.63;0.87;;;10.20;99.90;;;;;;5092395;28;20659;-62
2024/01/24 07:10:17;;;;;;;0.53;0.53;;;10.20;99.90;;;;;;5091297;28;20165;-62
2024/01/24 07:12:46;;;;;;;0.70;0.40;;;10.30;99.90;;;;;;5089828;28;20180;-62
2024/01/24 07:15:12;;;;;;;0.40;0.40;;;10.30;99.90;;;;;;5091406;28;20226;-61
2024/01/24 07:17:38;;;;;;;2.13;0.63;;;10.30;99.90;;;;;;5091409;28;20468;-61
2024/01/24 07:20:04;;;;;;;1.45;0.60;;;10.40;99.90;;;;;;5089652;28;20454;-62
2024/01/24 07:22:30;;;;;;;1.80;0.60;;;10.30;99.90;;;;;;5088230;28;20635;-62
2024/01/24 07:24:56;;;;;;;0.60;0.40;;;10.20;99.90;;;;;;5072360;28;20423;-62
2024/01/24 07:27:21;;;;;;;0.43;0.43;;;10.20;99.90;;;;;;5071337;28;20177;-62
2024/01/24 07:29:47;;;;;;;0.70;0.40;;;10.20;99.90;;;;;;5071324;28;20593;-62
2024/01/24 07:32:13;;;;;;;0.73;0.60;;;10.30;99.90;;;;;;5071422;28;20643;-62
2024/01/24 07:34:38;;;;;;;0.70;0.70;;;10.30;99.90;;;;;;5075700;28;20655;-62
2024/01/24 07:37:08;;;;;;;0.60;0.60;;;10.30;99.90;;;;;;5092300;28;20205;-61
2024/01/24 07:39:35;;;;;;;0.50;0.40;;;10.30;99.90;;;;;;5095064;28;20540;-61
2024/01/24 07:42:00;;;;;;;0.40;0.40;;;10.20;99.90;;;;;;5085929;28;20201;-62
2024/01/24 07:44:27;;;;;;;2.00;1.27;;;10.20;99.90;;;;;;5082126;28;20196;-61
2024/01/24 07:46:53;;;;;;;0.90;0.65;;;10.20;99.90;;;;;;5082129;28;20462;-62
2024/01/24 07:49:19;;;;;;;0.40;0.40;;;10.30;99.90;;;;;;5089226;28;20184;-62
2024/01/24 07:51:48;;;;;;;0.70;0.60;;;10.20;99.90;;;;;;5094765;28;20634;-63
2024/01/24 07:54:17;;;;;;;0.40;0.40;;;10.30;99.90;;;;;;5095191;28;20967;-62
2024/01/24 07:56:43;;;;;;;0.40;0.40;;;10.30;99.90;;;;;;5094882;28;20720;-62
2024/01/24 07:59:11;;;;;;;0.40;0.40;;;10.20;99.90;;;;;;5094970;28;20256;-62
2024/01/24 08:01:37;;;;;;;0.50;0.50;;;10.10;99.90;;;;;;5094506;28;20465;-63
2024/01/24 08:04:03;;;;;;;0.40;0.40;;;10.20;99.90;;;;;;5075953;28;20651;-62
2024/01/24 08:06:28;;;;;;;0.93;0.40;;;10.10;99.90;;;;;;5074391;28;20200;-62
2024/01/24 08:08:54;;;;;;;0.50;0.50;;;10.00;99.90;;;;;;5074485;28;20166;-62
2024/01/24 08:11:21;;;;;;;0.30;0.30;;;9.90;99.90;;;;;;5074168;28;20170;-62
2024/01/24 08:13:47;;;;;;;0.55;0.52;;;9.90;99.90;;;;;;5074209;28;20177;-61
2024/01/24 08:16:13;;;;;;;1.40;1.30;;;9.80;99.90;;;;;;5074176;28;20203;-62
2024/01/24 08:18:38;;;;;;;0.70;0.60;;;9.90;99.90;;;;;;5074557;28;20235;-61
2024/01/24 08:21:05;;;;;;;1.37;1.27;;;9.90;99.90;;;;;;5074149;28;20193;-61
2024/01/24 08:23:31;;;;;;;1.33;0.80;;;9.80;99.90;;;;;;5088214;28;20212;-62
2024/01/24 08:25:57;;;;;;;1.70;1.60;;;10.00;99.90;;;;;;5093805;28;20466;-62
2024/01/24 08:28:22;;;;;;;1.03;0.90;;;10.40;99.90;;;;;;5091299;28;20488;-64
2024/01/24 08:30:48;;;;;;;1.43;1.30;;;10.90;99.90;;;;;;5094940;28;20252;-66
2024/01/24 08:33:16;;;;;;;0.73;0.60;;;11.00;99.90;;;;;;5093612;28;20264;-65
2024/01/24 08:35:41;;;;;;;0.55;0.40;;;11.10;99.90;;;;;;5093917;28;20196;-64
2024/01/24 08:38:07;;;;;;;0.60;0.60;;;11.00;99.90;;;;;;5094387;28;20554;-64
2024/01/24 08:40:33;;;;;;;0.70;0.70;;;10.70;99.90;;;;;;5094063;28;20175;-64
2024/01/24 08:42:58;;;;;;;0.67;0.60;;;10.50;99.90;;;;;;5094004;28;20454;-65
2024/01/24 08:45:24;;;;;;;0.93;0.73;;;10.40;99.90;;;;;;5092777;28;20189;-64
2024/01/24 08:47:50;;;;;;;0.40;0.40;;;10.50;99.90;;;;;;5094134;28;20169;-64
2024/01/24 08:50:19;;;;;;;0.60;0.50;;;10.40;99.90;;;;;;5093984;28;20276;-65
2024/01/24 08:52:45;;;;;;;0.60;0.57;;;10.40;99.90;;;;;;5093809;28;20700;-63
2024/01/24 08:55:13;;;;;;;0.50;0.40;;;10.20;99.90;;;;;;5093876;28;20407;-64
2024/01/24 08:57:39;;;;;;;0.60;0.50;;;10.30;99.90;;;;;;5093939;28;20180;-64
2024/01/24 09:00:07;;;;;;;0.50;0.50;;;10.30;99.90;;;;;;5093608;28;20184;-64
2024/01/24 09:02:33;;;;;;;0.80;0.60;;;10.40;99.90;;;;;;5093499;28;20462;-64
2024/01/24 09:04:59;;;;;;;1.70;0.95;;;10.40;99.90;;;;;;5093249;28;20498;-64
2024/01/24 09:07:25;;;;;;;1.40;0.90;;;10.50;99.90;;;;;;5093646;28;20208;-64
2024/01/24 09:09:51;;;;;;;0.40;0.40;;;10.40;99.90;;;;;;5093691;28;20682;-63
2024/01/24 09:12:17;;;;;;;0.50;0.50;;;10.10;99.90;;;;;;5093346;28;20565;-64
2024/01/24 09:14:44;;;;;;;2.70;1.42;;;10.10;99.90;;;;;;5093522;28;20639;-64
2024/01/24 09:17:11;;;;;;;2.42;1.65;;;10.20;99.90;;;;;;5093446;28;20280;-64
2024/01/24 09:19:37;;;;;;;1.15;0.70;;;10.20;99.90;;;;;;5093015;28;20629;-64
2024/01/24 09:22:02;;;;;;;1.40;1.20;;;10.30;99.90;;;;;;5093136;28;20287;-64
2024/01/24 09:24:28;;;;;;;4.17;3.60;;;10.30;99.90;;;;;;5092488;28;20169;-64
2024/01/24 09:26:55;;;;;;;2.00;1.30;;;10.40;99.90;;;;;;5093136;28;20196;-64
2024/01/24 09:29:20;;;;;;;2.58;2.10;;;10.30;99.90;;;;;;5092621;28;20181;-64
2024/01/24 09:31:46;;;;;;;0.43;0.43;;;10.10;99.90;;;;;;5092568;28;20177;-64
2024/01/24 09:34:12;;;;;;;0.70;0.70;;;10.20;99.90;;;;;;5092814;28;20520;-64
2024/01/24 09:36:38;;;;;;;0.40;0.40;;;10.10;99.90;;;;;;5092601;28;20429;-64
2024/01/24 09:39:04;;;;;;;1.53;1.20;;;10.20;99.90;;;;;;5093002;28;20509;-63
2024/01/24 09:41:41;;;;;;;0.40;0.40;;;10.20;99.90;;;;;;5092405;28;20412;-63
2024/01/24 09:44:11;;;;;;;0.80;0.80;;;10.20;99.90;;;;;;5092545;28;20175;-63
2024/01/24 09:46:38;;;;;;;0.60;0.60;;;10.30;99.90;;;;;;5092447;28;20423;-63
2024/01/24 09:49:07;;;;;;;1.53;0.50;;;10.40;99.90;;;;;;5092870;28;20443;-63
2024/01/24 09:51:34;;;;;;;0.60;0.60;;;10.50;99.90;;;;;;5093758;28;20401;-63
2024/01/24 09:54:07;;;;;;;0.40;0.40;;;10.60;99.90;;;;;;5092482;28;20404;-63
2024/01/24 09:56:35;;;;;;;0.67;0.67;;;10.70;99.90;;;;;;5092432;28;20821;-64
2024/01/24 09:59:03;;;;;;;1.33;0.50;;;10.70;99.90;;;;;;5092626;28;20455;-63
2024/01/24 10:01:31;;;;;;;1.63;0.80;;;10.80;99.90;;;;;;5092594;28;20790;-63
2024/01/24 10:03:58;;;;;;;0.63;0.53;;;10.90;99.90;;;;;;5092444;28;20402;-64
2024/01/24 10:06:24;;;;;;;6.53;5.83;;;10.90;99.90;;;;;;5092454;28;20463;-64
2024/01/24 10:08:50;;;;;;;1.10;1.00;;;10.80;99.90;;;;;;5092457;28;20407;-64
2024/01/24 10:11:15;;;;;;;0.60;0.50;;;10.80;99.90;;;;;;5092368;28;20188;-64
2024/01/24 10:13:41;;;;;;;0.80;0.50;;;10.90;99.90;;;;;;5092514;28;20180;-64
2024/01/24 10:16:07;;;;;;;0.40;0.40;;;11.00;99.90;;;;;;5092440;28;20667;-64
2024/01/24 10:18:33;;;;;;;0.50;0.50;;;11.10;99.90;;;;;;5092410;28;20213;-63
2024/01/24 10:21:03;;;;;;;0.95;0.50;;;11.10;99.90;;;;;;5092154;28;20173;-63
2024/01/24 10:23:29;;;;;;;0.55;0.43;;;11.10;99.90;;;;;;5092062;28;20212;-64
2024/01/24 10:25:55;;;;;;;1.13;1.02;;;11.00;99.90;;;;;;5092244;28;20211;-64
2024/01/24 10:28:21;;;;;;;1.03;0.63;;;11.00;99.90;;;;;;5092191;28;20172;-64
2024/01/24 10:30:48;;;;;;;0.40;0.40;;;11.10;99.90;;;;;;5092029;28;20399;-63
2024/01/24 10:33:15;;;;;;;2.00;0.40;;;11.00;99.90;;;;;;5091971;28;20437;-64
2024/01/24 10:35:42;;;;;;;0.50;0.50;;;10.90;99.90;;;;;;5091891;28;20462;-64
2024/01/24 10:38:12;;;;;;;0.50;0.50;;;10.90;99.90;;;;;;5092247;28;20810;-64
2024/01/24 10:40:41;;;;;;;0.50;0.50;;;11.00;99.90;;;;;;5091955;28;20452;-64
2024/01/24 10:43:13;;;;;;;0.73;0.73;;;11.00;99.90;;;;;;5091754;28;20470;-64
2024/01/24 10:45:44;;;;;;;0.43;0.43;;;11.10;99.90;;;;;;5091833;28;20432;-64
2024/01/24 10:48:13;;;;;;;1.00;1.00;;;11.00;99.90;;;;;;5091842;28;20407;-64
2024/01/24 10:50:39;;;;;;;0.77;0.77;;;10.90;99.90;;;;;;5091874;28;20491;-64
2024/01/24 10:53:05;;;;;;;0.50;0.50;;;11.00;99.90;;;;;;5091913;28;20947;-64
2024/01/24 10:55:33;;;;;;;0.50;0.40;;;11.10;99.90;;;;;;5091840;28;20430;-64
2024/01/24 10:58:01;;;;;;;0.93;0.50;;;11.20;99.90;;;;;;5091680;28;20411;-64
2024/01/24 11:00:28;;;;;;;0.50;0.50;;;11.20;99.90;;;;;;5091548;28;20413;-64
2024/01/24 11:02:55;;;;;;;0.67;0.50;;;11.20;99.90;;;;;;5091403;28;20959;-63
2024/01/24 11:05:37;;;;;;;1.20;1.10;;;11.20;99.90;;;;;;5091660;28;20924;-64
2024/01/24 11:08:07;;;;;;;1.57;0.50;;;11.00;99.90;;;;;;5091056;28;20491;-64
2024/01/24 11:10:37;;;;;;;0.60;0.60;;;10.80;99.90;;;;;;5091542;28;20418;-64
2024/01/24 11:13:04;;;;;;;0.60;0.60;;;10.90;99.90;;;;;;5092420;28;20984;-63
2024/01/24 11:15:31;;;;;;;0.83;0.80;;;11.00;99.90;;;;;;5091585;28;20430;-64
2024/01/24 11:18:21;;;;;;;0.40;0.40;;;11.10;99.90;;;;;;5091687;28;20456;-63
2024/01/24 11:20:50;;;;;;;2.77;0.60;;;11.30;99.90;;;;;;5091361;28;20399;-64
2024/01/24 11:23:38;;;;;;;0.50;0.50;;;11.30;99.90;;;;;;5091269;28;20549;-63
2024/01/24 11:26:04;;;;;;;0.60;0.60;;;11.30;99.90;;;;;;5091382;28;20506;-64
2024/01/24 11:28:30;;;;;;;0.50;0.50;;;11.30;99.90;;;;;;5091485;28;20785;-64
2024/01/24 11:30:56;;;;;;;0.90;0.70;;;11.30;99.90;;;;;;5091365;28;20407;-63
2024/01/24 11:33:22;;;;;;;0.60;0.50;;;11.40;99.90;;;;;;5091473;28;20169;-64
2024/01/24 11:35:50;;;;;;;0.50;0.50;;;11.30;99.90;;;;;;5091370;28;20848;-64
2024/01/24 11:38:26;;;;;;;0.50;0.50;;;11.30;99.90;;;;;;5091229;28;20184;-63
2024/01/24 11:40:52;;;;;;;2.30;0.70;;;11.20;99.90;;;;;;5091158;28;20508;-63
2024/01/24 11:43:32;;;;;;;1.53;1.43;;;11.10;99.90;;;;;;5091134;28;20964;-64
2024/01/24 11:46:03;;;;;;;1.07;0.97;;;11.10;99.90;;;;;;5091286;28;20479;-63
2024/01/24 11:48:31;;;;;;;0.60;0.60;;;11.10;99.90;;;;;;5091322;28;20403;-64
2024/01/24 11:51:01;;;;;;;0.43;0.40;;;11.10;99.90;;;;;;5090974;28;20180;-64
2024/01/24 11:53:28;;;;;;;9.93;8.37;;;10.90;99.90;;;;;;5091125;28;20398;-63
2024/01/24 11:55:55;;;;;;;2.70;2.60;;;10.90;99.90;;;;;;5091083;28;20426;-64
2024/01/24 11:58:25;;;;;;;0.97;0.97;;;10.90;99.90;;;;;;5091198;28;20485;-64
2024/01/24 12:00:55;;;;;;;0.60;0.60;;;11.10;99.90;;;;;;5090931;28;21001;-64
2024/01/24 12:03:21;;;;;;;0.60;0.60;;;11.10;99.90;;;;;;5090820;28;21023;-64
2024/01/24 12:05:47;;;;;;;1.20;0.83;;;11.00;99.90;;;;;;5091225;28;20799;-64
2024/01/24 12:08:13;;;;;;;1.63;0.50;;;11.10;99.90;;;;;;5091057;28;20402;-64
2024/01/24 12:10:39;;;;;;;0.57;0.50;;;11.10;99.90;;;;;;5090832;28;20395;-64
2024/01/24 12:13:06;;;;;;;1.83;1.37;;;11.10;99.90;;;;;;5090788;28;20464;-63
2024/01/24 12:15:33;;;;;;;1.13;0.83;;;11.20;99.90;;;;;;5090985;28;20492;-63
2024/01/24 12:18:12;;;;;;;1.50;1.40;;;11.10;99.90;;;;;;5090897;28;20403;-64
2024/01/24 12:20:38;;;;;;;0.80;0.50;;;11.00;99.90;;;;;;5094525;28;20775;-64
2024/01/24 12:23:06;;;;;;;0.50;0.50;;;11.10;99.90;;;;;;5094442;28;20451;-64
2024/01/24 12:25:32;;;;;;;0.67;0.67;;;11.20;99.90;;;;;;5094314;28;20990;-63
2024/01/24 12:27:58;;;;;;;1.43;1.33;;;11.30;99.90;;;;;;5094449;28;20421;-63
2024/01/24 12:30:32;;;;;;;0.80;0.80;;;11.30;99.90;;;;;;5094314;28;20481;-64
2024/01/24 12:32:59;;;;;;;0.90;0.90;;;11.30;99.90;;;;;;5094447;28;20704;-64
2024/01/24 12:35:24;;;;;;;0.90;0.53;;;11.30;99.90;;;;;;5096255;28;20522;-63
2024/01/24 12:37:51;;;;;;;0.50;0.40;;;11.20;99.90;;;;;;5094373;28;20502;-64
2024/01/24 12:40:17;;;;;;;0.40;0.40;;;11.10;99.90;;;;;;5094161;28;20179;-63
2024/01/24 12:42:43;;;;;;;0.50;0.50;;;11.10;99.90;;;;;;5093872;28;20450;-63
2024/01/24 12:45:12;;;;;;;1.07;0.60;;;11.20;99.90;;;;;;5094139;28;20432;-64
2024/01/24 12:47:39;;;;;;;0.70;0.70;;;11.30;99.90;;;;;;5094083;28;20414;-64